Boryslav — ENLB — position and weather

sailwx.info

Track history (hours):
 
Tides and Currents Weather Stations Pressure Air Temp Water Temp Dewpoint Dewpoint Depression Visibility Wind Speed Wind Dir Waves Ship Positions

Boryslav

Last reported at 2016-May-25 05:14 UTC. Time now 2016-May-27 14:15 UTC.
Position N 46°32' E 032°11'.

Length 86 m; draft 2.4 m.

Type: Cargo ship. MMSI: 272088700.

Date/timePositionNaut miles runAvg speedWind from/ knotsBaromVisibWave heightAir tempDewpointWater temp
2016-May-25 05:14N 46°32' E 032°11'4 5.7
2016-May-25 04:33N 46°32' E 032°05'6 5.6
2016-May-25 03:33N 46°33' E 031°58'5 5.3
2016-May-25 02:33N 46°35' E 031°50'5 4.9
2016-May-25 01:26N 46°36' E 031°42'5 4.8
2016-May-25 00:29N 46°35' E 031°36'6 4.7
2016-May-24 23:16N 46°35' E 031°27'10 5.5
2016-May-24 21:27N 46°35' E 031°13'5 5.6
2016-May-24 20:31N 46°34' E 031°05'5 5.7
2016-May-24 19:33N 46°33' E 030°58'6 5.6
2016-May-24 18:34N 46°31' E 030°50'4 3.7
2016-May-24 17:33N 46°29' E 030°45'0 0.0
2016-May-24 16:33N 46°29' E 030°45'0 0.0
2016-May-24 15:33N 46°29' E 030°45'0 0.0
2016-May-24 14:33N 46°29' E 030°45'0 0.0
2016-May-24 13:33N 46°29' E 030°45'0 0.0
2016-May-24 12:33N 46°29' E 030°45'0 0.0
2016-May-24 11:34N 46°29' E 030°45'0 0.0
2016-May-24 10:33N 46°29' E 030°45'2 1.9
2016-May-24 09:33N 46°31' E 030°46'0 0.5
2016-May-24 08:33N 46°31' E 030°46'0 0.0
2016-May-24 07:33N 46°31' E 030°46'0 0.0
2016-May-24 06:33N 46°31' E 030°46'0 0.0
2016-May-24 05:33N 46°31' E 030°46'0 0.0
2016-May-24 04:33N 46°31' E 030°46'0 0.0
2016-May-24 03:33N 46°31' E 030°46'0 0.0
2016-May-24 02:33N 46°31' E 030°46'0 0.0
2016-May-24 01:33N 46°31' E 030°46'0 0.0
2016-May-24 00:33N 46°31' E 030°46'0 0.0
2016-May-23 23:34N 46°31' E 030°46'0 0.0
2016-May-23 22:34N 46°31' E 030°46'0 0.0
2016-May-23 21:34N 46°31' E 030°46'0 0.0
2016-May-23 20:34N 46°31' E 030°46'0 0.0
2016-May-23 19:33N 46°31' E 030°46'0 0.0
2016-May-23 18:33N 46°31' E 030°46'0 0.0
2016-May-23 17:33N 46°31' E 030°46'0 0.0
2016-May-23 16:33N 46°31' E 030°46'0 0.0
2016-May-23 15:33N 46°31' E 030°46'0 0.1
2016-May-23 14:33N 46°31' E 030°46'0 0.0
2016-May-23 13:33N 46°31' E 030°46'0 0.0
2016-May-23 12:33N 46°31' E 030°46'0 0.0
2016-May-23 11:33N 46°31' E 030°46'0 0.0
2016-May-23 10:33N 46°31' E 030°46'0 0.0
2016-May-23 09:33N 46°31' E 030°46'0 0.0
2016-May-23 08:33N 46°31' E 030°46'0 0.0
2016-May-23 07:33N 46°31' E 030°46'0 0.0
2016-May-23 06:33N 46°31' E 030°46'0 0.0
2016-May-23 05:33N 46°31' E 030°46'0 0.0
2016-May-23 04:33N 46°31' E 030°46'0 0.0
2016-May-23 03:33N 46°31' E 030°46'0 0.0
2016-May-23 02:33N 46°31' E 030°46'0 0.0
2016-May-23 01:33N 46°31' E 030°46'0 0.0
2016-May-23 00:33N 46°31' E 030°46'0 0.0
2016-May-22 23:33N 46°31' E 030°46'0 0.0
2016-May-22 22:33N 46°31' E 030°46'0 0.1
2016-May-22 21:33N 46°31' E 030°46'0 0.0
2016-May-22 20:33N 46°31' E 030°46'0 0.0
2016-May-22 19:33N 46°31' E 030°46'0 0.0
2016-May-22 18:33N 46°31' E 030°46'0 0.0
2016-May-22 17:33N 46°31' E 030°46'0 0.0
2016-May-22 16:33N 46°31' E 030°46'0 0.0
2016-May-22 15:33N 46°31' E 030°46'0 0.0
2016-May-22 14:33N 46°31' E 030°46'0 0.0
2016-May-22 13:33N 46°31' E 030°46'0 0.0
2016-May-22 12:33N 46°31' E 030°46'0 0.0
2016-May-22 11:33N 46°31' E 030°46'0 0.0
2016-May-22 10:33N 46°31' E 030°46'0 0.0
2016-May-22 09:33N 46°31' E 030°46'0 0.0
2016-May-22 08:33N 46°31' E 030°46'0 0.0
2016-May-22 07:33N 46°31' E 030°46'0 0.0
2016-May-22 06:33N 46°31' E 030°46'0 0.0
2016-May-22 05:33N 46°31' E 030°46'0 0.1
2016-May-22 04:33N 46°31' E 030°46'0 0.0
2016-May-22 03:33N 46°31' E 030°46'2 1.9
2016-May-22 02:33N 46°31' E 030°49'5 4.7
2016-May-22 01:33N 46°32' E 030°55'5 4.7
2016-May-22 00:33N 46°34' E 031°02'5 4.8
2016-May-21 23:30N 46°35' E 031°09'11 5.3
2016-May-21 21:30N 46°35' E 031°24'4 4.7
2016-May-21 20:33N 46°35' E 031°31'4 4.0
2016-May-21 19:33N 46°35' E 031°36'6 5.6
2016-May-21 18:34N 46°36' E 031°44'5 5.3
2016-May-21 17:33N 46°35' E 031°52'6 5.6
2016-May-21 16:31N 46°33' E 032°00'  
2016-May-18 06:11N 47°35' E 035°02'3 4.3
2016-May-18 05:33N 47°37' E 035°03'4 4.3
2016-May-18 04:33N 47°40' E 035°07'4 4.0
2016-May-18 03:33N 47°44' E 035°10'4 4.1
2016-May-18 02:33N 47°48' E 035°10'1 0.6
2016-May-18 01:33N 47°49' E 035°09'0 0.0
2016-May-18 00:33N 47°49' E 035°09'0 0.0
2016-May-17 23:33N 47°49' E 035°09'0 0.0
2016-May-17 22:33N 47°49' E 035°09'0 0.0
2016-May-17 21:33N 47°49' E 035°09'0 0.0
2016-May-17 20:33N 47°49' E 035°09'0 0.0
2016-May-17 19:33N 47°49' E 035°09'0 0.0
2016-May-17 18:33N 47°49' E 035°09'1 0.6
2016-May-17 17:33N 47°49' E 035°09'4 3.6
2016-May-17 16:33N 47°52' E 035°06'1 1.3
2016-May-17 15:33N 47°53' E 035°06'4 4.0
2016-May-17 14:33N 47°57' E 035°07'4 4.0
2016-May-17 13:33N 48°01' E 035°08'  
Track history (hours):
 
Tides and Currents Weather Stations Pressure Air Temp Water Temp Dewpoint Dewpoint Depression Visibility Wind Speed Wind Dir Waves Ship Positions

Boryslav

Last reported at 2016-May-25 05:14 UTC. Time now 2016-May-27 14:15 UTC.
Position N 46°32' E 032°11'.

Length 86 m; draft 2.4 m.

Type: Cargo ship. MMSI: 272088700.

Date/timePositionNaut miles runAvg speedWind from/ knotsBaromVisibWave heightAir tempDewpointWater temp
2016-May-25 05:14N 46°32' E 032°11'4 5.7
2016-May-25 04:33N 46°32' E 032°05'6 5.6
2016-May-25 03:33N 46°33' E 031°58'5 5.3
2016-May-25 02:33N 46°35' E 031°50'5 4.9
2016-May-25 01:26N 46°36' E 031°42'5 4.8
2016-May-25 00:29N 46°35' E 031°36'6 4.7
2016-May-24 23:16N 46°35' E 031°27'10 5.5
2016-May-24 21:27N 46°35' E 031°13'5 5.6
2016-May-24 20:31N 46°34' E 031°05'5 5.7
2016-May-24 19:33N 46°33' E 030°58'6 5.6
2016-May-24 18:34N 46°31' E 030°50'4 3.7
2016-May-24 17:33N 46°29' E 030°45'0 0.0
2016-May-24 16:33N 46°29' E 030°45'0 0.0
2016-May-24 15:33N 46°29' E 030°45'0 0.0
2016-May-24 14:33N 46°29' E 030°45'0 0.0
2016-May-24 13:33N 46°29' E 030°45'0 0.0
2016-May-24 12:33N 46°29' E 030°45'0 0.0
2016-May-24 11:34N 46°29' E 030°45'0 0.0
2016-May-24 10:33N 46°29' E 030°45'2 1.9
2016-May-24 09:33N 46°31' E 030°46'0 0.5
2016-May-24 08:33N 46°31' E 030°46'0 0.0
2016-May-24 07:33N 46°31' E 030°46'0 0.0
2016-May-24 06:33N 46°31' E 030°46'0 0.0
2016-May-24 05:33N 46°31' E 030°46'0 0.0
2016-May-24 04:33N 46°31' E 030°46'0 0.0
2016-May-24 03:33N 46°31' E 030°46'0 0.0
2016-May-24 02:33N 46°31' E 030°46'0 0.0
2016-May-24 01:33N 46°31' E 030°46'0 0.0
2016-May-24 00:33N 46°31' E 030°46'0 0.0
2016-May-23 23:34N 46°31' E 030°46'0 0.0
2016-May-23 22:34N 46°31' E 030°46'0 0.0
2016-May-23 21:34N 46°31' E 030°46'0 0.0
2016-May-23 20:34N 46°31' E 030°46'0 0.0
2016-May-23 19:33N 46°31' E 030°46'0 0.0
2016-May-23 18:33N 46°31' E 030°46'0 0.0
2016-May-23 17:33N 46°31' E 030°46'0 0.0
2016-May-23 16:33N 46°31' E 030°46'0 0.0
2016-May-23 15:33N 46°31' E 030°46'0 0.1
2016-May-23 14:33N 46°31' E 030°46'0 0.0
2016-May-23 13:33N 46°31' E 030°46'0 0.0
2016-May-23 12:33N 46°31' E 030°46'0 0.0
2016-May-23 11:33N 46°31' E 030°46'0 0.0
2016-May-23 10:33N 46°31' E 030°46'0 0.0
2016-May-23 09:33N 46°31' E 030°46'0 0.0
2016-May-23 08:33N 46°31' E 030°46'0 0.0
2016-May-23 07:33N 46°31' E 030°46'0 0.0
2016-May-23 06:33N 46°31' E 030°46'0 0.0
2016-May-23 05:33N 46°31' E 030°46'0 0.0
2016-May-23 04:33N 46°31' E 030°46'0 0.0
2016-May-23 03:33N 46°31' E 030°46'0 0.0
2016-May-23 02:33N 46°31' E 030°46'0 0.0
2016-May-23 01:33N 46°31' E 030°46'0 0.0
2016-May-23 00:33N 46°31' E 030°46'0 0.0
2016-May-22 23:33N 46°31' E 030°46'0 0.0
2016-May-22 22:33N 46°31' E 030°46'0 0.1
2016-May-22 21:33N 46°31' E 030°46'0 0.0
2016-May-22 20:33N 46°31' E 030°46'0 0.0
2016-May-22 19:33N 46°31' E 030°46'0 0.0
2016-May-22 18:33N 46°31' E 030°46'0 0.0
2016-May-22 17:33N 46°31' E 030°46'0 0.0
2016-May-22 16:33N 46°31' E 030°46'0 0.0
2016-May-22 15:33N 46°31' E 030°46'0 0.0
2016-May-22 14:33N 46°31' E 030°46'0 0.0
2016-May-22 13:33N 46°31' E 030°46'0 0.0
2016-May-22 12:33N 46°31' E 030°46'0 0.0
2016-May-22 11:33N 46°31' E 030°46'0 0.0
2016-May-22 10:33N 46°31' E 030°46'0 0.0
2016-May-22 09:33N 46°31' E 030°46'0 0.0
2016-May-22 08:33N 46°31' E 030°46'0 0.0
2016-May-22 07:33N 46°31' E 030°46'0 0.0
2016-May-22 06:33N 46°31' E 030°46'0 0.0
2016-May-22 05:33N 46°31' E 030°46'0 0.1
2016-May-22 04:33N 46°31' E 030°46'0 0.0
2016-May-22 03:33N 46°31' E 030°46'2 1.9
2016-May-22 02:33N 46°31' E 030°49'5 4.7
2016-May-22 01:33N 46°32' E 030°55'5 4.7
2016-May-22 00:33N 46°34' E 031°02'5 4.8
2016-May-21 23:30N 46°35' E 031°09'11 5.3
2016-May-21 21:30N 46°35' E 031°24'4 4.7
2016-May-21 20:33N 46°35' E 031°31'4 4.0
2016-May-21 19:33N 46°35' E 031°36'6 5.6
2016-May-21 18:34N 46°36' E 031°44'5 5.3
2016-May-21 17:33N 46°35' E 031°52'6 5.6
2016-May-21 16:31N 46°33' E 032°00'  
2016-May-18 06:11N 47°35' E 035°02'3 4.3
2016-May-18 05:33N 47°37' E 035°03'4 4.3
2016-May-18 04:33N 47°40' E 035°07'4 4.0
2016-May-18 03:33N 47°44' E 035°10'4 4.1
2016-May-18 02:33N 47°48' E 035°10'1 0.6
2016-May-18 01:33N 47°49' E 035°09'0 0.0
2016-May-18 00:33N 47°49' E 035°09'0 0.0
2016-May-17 23:33N 47°49' E 035°09'0 0.0
2016-May-17 22:33N 47°49' E 035°09'0 0.0
2016-May-17 21:33N 47°49' E 035°09'0 0.0
2016-May-17 20:33N 47°49' E 035°09'0 0.0
2016-May-17 19:33N 47°49' E 035°09'0 0.0
2016-May-17 18:33N 47°49' E 035°09'1 0.6
2016-May-17 17:33N 47°49' E 035°09'4 3.6
2016-May-17 16:33N 47°52' E 035°06'1 1.3
2016-May-17 15:33N 47°53' E 035°06'4 4.0
2016-May-17 14:33N 47°57' E 035°07'4 4.0
2016-May-17 13:33N 48°01' E 035°08'  

Dump ship's entire track history